createdAt,value
2023-03-01T00:00:22.118Z,1.27
2023-03-01T00:03:10.465Z,1.22
2023-03-01T00:05:46.336Z,1.28
2023-03-01T00:08:14.385Z,1.28
2023-03-01T00:10:42.737Z,1.27
2023-03-01T00:13:10.792Z,1.28
2023-03-01T00:15:42.634Z,1.27
2023-03-01T00:18:10.950Z,1.27
2023-03-01T00:20:52.417Z,1.27
2023-03-01T00:23:40.189Z,1.23
2023-03-01T00:26:11.332Z,1.25
2023-03-01T00:28:39.519Z,1.26
2023-03-01T00:31:14.375Z,1.25
2023-03-01T00:33:43.290Z,1.26
2023-03-01T00:36:13.082Z,1.26
2023-03-01T00:38:46.282Z,1.29
2023-03-01T00:41:21.170Z,1.32
2023-03-01T00:43:50.214Z,1.33
2023-03-01T00:46:21.863Z,1.34
2023-03-01T00:48:50.779Z,1.37
2023-03-01T00:51:40.451Z,1.40
2023-03-01T00:54:11.416Z,1.42
2023-03-01T00:56:39.395Z,1.39
2023-03-01T00:59:07.316Z,1.35
2023-03-01T01:01:55.463Z,1.33
2023-03-01T01:04:24.187Z,1.32
2023-03-01T01:06:52.575Z,1.32
2023-03-01T01:09:20.618Z,1.32
2023-03-01T01:11:51.292Z,1.30
2023-03-01T01:15:15.626Z,1.26
2023-03-01T01:18:20.245Z,1.16
2023-03-01T01:20:50.800Z,1.11
2023-03-01T01:23:18.924Z,1.10
2023-03-01T01:25:47.961Z,1.11
2023-03-01T01:28:15.978Z,1.13
2023-03-01T01:30:52.577Z,1.11
2023-03-01T01:33:21.051Z,1.07
2023-03-01T01:35:49.080Z,1.03
2023-03-01T01:38:17.168Z,0.98
2023-03-01T01:40:48.137Z,0.94
2023-03-01T01:43:28.718Z,0.92
2023-03-01T01:46:25.513Z,0.92
2023-03-01T01:48:58.280Z,0.93
2023-03-01T01:51:45.341Z,0.95
2023-03-01T01:54:21.477Z,1.00
2023-03-01T01:56:56.229Z,1.00
2023-03-01T01:59:26.215Z,0.99
2023-03-01T02:01:57.822Z,0.98
2023-03-01T02:04:26.575Z,0.96
2023-03-01T02:07:02.804Z,0.96
2023-03-01T02:09:32.166Z,0.95
2023-03-01T02:12:22.219Z,0.94
2023-03-01T02:14:50.277Z,0.92
2023-03-01T02:17:20.398Z,0.91
2023-03-01T02:20:00.648Z,0.86
2023-03-01T02:23:08.595Z,0.81
2023-03-01T02:26:08.484Z,0.79
2023-03-01T02:28:37.714Z,0.78
2023-03-01T02:31:30.963Z,0.76
2023-03-01T02:33:59.165Z,0.73
2023-03-01T02:36:32.125Z,0.71
2023-03-01T02:39:03.405Z,0.71
2023-03-01T02:41:36.749Z,0.70
2023-03-01T02:44:06.900Z,0.69
2023-03-01T02:46:35.125Z,0.69
2023-03-01T02:49:03.584Z,0.70
2023-03-01T02:51:34.950Z,0.72
2023-03-01T02:54:16.822Z,0.73
2023-03-01T02:56:50.094Z,0.70
2023-03-01T02:59:21.420Z,0.67
2023-03-01T03:01:49.701Z,0.62
2023-03-01T03:04:20.166Z,0.57
2023-03-01T03:06:51.669Z,0.52
2023-03-01T03:09:20.368Z,0.48
2023-03-01T03:11:49.064Z,0.49
2023-03-01T03:14:17.956Z,0.52
2023-03-01T03:16:50.951Z,0.55
2023-03-01T03:19:19.723Z,0.57
2023-03-01T03:21:48.407Z,0.59
2023-03-01T03:24:39.215Z,0.61
2023-03-01T03:27:08.269Z,0.60
2023-03-01T03:29:36.410Z,0.57
2023-03-01T03:32:04.657Z,0.54
2023-03-01T03:34:53.342Z,0.52
2023-03-01T03:37:39.874Z,0.44
2023-03-01T03:40:16.551Z,0.45
2023-03-01T03:42:44.604Z,0.42
2023-03-01T03:45:12.661Z,0.38
2023-03-01T03:47:40.617Z,0.36
2023-03-01T03:50:10.342Z,0.36
2023-03-01T03:52:38.475Z,0.36
2023-03-01T03:55:10.534Z,0.36
2023-03-01T03:57:42.716Z,0.36
2023-03-01T04:00:15.643Z,0.34
2023-03-01T04:02:44.279Z,0.34
2023-03-01T04:05:15.279Z,0.35
2023-03-01T04:07:43.996Z,0.35
2023-03-01T04:10:17.393Z,0.35
2023-03-01T04:12:45.566Z,0.34
2023-03-01T04:15:25.071Z,0.32
2023-03-01T04:17:56.913Z,0.29
2023-03-01T04:20:27.874Z,0.28
2023-03-01T04:23:17.410Z,0.28
2023-03-01T04:26:12.269Z,0.28
2023-03-01T04:28:50.504Z,0.31
2023-03-01T04:31:22.447Z,0.33
2023-03-01T04:33:56.696Z,0.34
2023-03-01T04:36:27.944Z,0.33
2023-03-01T04:38:57.214Z,0.29
2023-03-01T04:41:25.973Z,0.25
2023-03-01T04:43:54.012Z,0.20
2023-03-01T04:46:22.727Z,0.19
2023-03-01T04:48:50.951Z,0.18
2023-03-01T04:51:19.557Z,0.17
2023-03-01T04:53:48.177Z,0.18
2023-03-01T04:56:38.550Z,0.20
2023-03-01T04:59:06.820Z,0.22
2023-03-01T05:01:36.472Z,0.22
2023-03-01T05:04:06.452Z,0.20
2023-03-01T05:06:54.902Z,0.16
2023-03-01T05:09:23.670Z,0.16
2023-03-01T05:11:52.845Z,0.15
2023-03-01T05:14:20.928Z,0.11
2023-03-01T05:16:49.247Z,0.09
2023-03-01T05:19:17.320Z,0.09
2023-03-01T05:22:04.985Z,0.08
2023-03-01T05:24:35.733Z,0.09
2023-03-01T05:27:23.788Z,0.09
2023-03-01T05:30:00.562Z,0.06
2023-03-01T05:32:32.123Z,0.03
2023-03-01T05:35:00.117Z,0.02
2023-03-01T05:37:29.943Z,0.04
2023-03-01T05:39:58.026Z,0.07
2023-03-01T05:42:26.061Z,0.07
2023-03-01T05:44:54.060Z,0.06
2023-03-01T05:47:26.398Z,0.05
2023-03-01T05:49:54.373Z,0.04
2023-03-01T05:52:22.342Z,0.05
2023-03-01T05:54:50.714Z,0.06
2023-03-01T05:57:18.697Z,0.09
2023-03-01T05:59:46.894Z,0.09
2023-03-01T06:02:15.242Z,0.11
2023-03-01T06:04:43.583Z,0.14
2023-03-01T06:07:12.897Z,0.17
2023-03-01T06:09:41.708Z,0.20
2023-03-01T06:12:09.744Z,0.26
2023-03-01T06:14:37.749Z,0.33
2023-03-01T06:17:05.773Z,0.39
2023-03-01T06:19:33.850Z,0.42
2023-03-01T06:22:02.050Z,0.45
2023-03-01T06:24:30.326Z,0.46
2023-03-01T06:26:59.859Z,0.45
2023-03-01T06:29:28.628Z,0.47
2023-03-01T06:31:56.749Z,0.53
2023-03-01T06:34:24.911Z,0.59
2023-03-01T06:37:13.331Z,0.65
2023-03-01T06:39:41.433Z,0.73
2023-03-01T06:42:11.120Z,0.80
2023-03-01T06:44:39.817Z,0.87
2023-03-01T06:47:08.310Z,0.85
2023-03-01T06:49:36.913Z,0.99
2023-03-01T06:52:05.394Z,1.01
2023-03-01T06:54:34.056Z,1.11
2023-03-01T06:57:22.318Z,1.21
2023-03-01T06:59:50.412Z,1.30
2023-03-01T07:02:18.687Z,1.39
2023-03-01T07:04:47.133Z,1.50
2023-03-01T07:07:15.232Z,1.61
2023-03-01T07:10:03.303Z,1.73
2023-03-01T07:12:31.231Z,1.85
2023-03-01T07:14:59.403Z,1.98
2023-03-01T07:17:27.482Z,2.11
2023-03-01T07:19:55.958Z,2.20
2023-03-01T07:22:24.311Z,2.25
2023-03-01T07:24:52.331Z,2.25
2023-03-01T07:27:20.330Z,2.26
2023-03-01T07:30:13.734Z,2.23
2023-03-01T07:32:42.018Z,2.17
2023-03-01T07:35:10.333Z,2.34
2023-03-01T07:37:38.551Z,2.56
2023-03-01T07:40:07.821Z,3.19
2023-03-01T07:42:35.864Z,4.17
2023-03-01T07:45:05.247Z,5.17
2023-03-01T07:47:33.641Z,6.13
2023-03-01T07:50:05.489Z,7.11
2023-03-01T07:52:33.694Z,8.05
2023-03-01T07:55:01.665Z,8.85
2023-03-01T07:57:29.843Z,9.61
2023-03-01T07:59:58.058Z,10.36
2023-03-01T08:02:26.047Z,11.02
2023-03-01T08:04:53.848Z,11.58
2023-03-01T08:07:21.929Z,12.05
2023-03-01T08:09:50.264Z,12.43
2023-03-01T08:12:18.376Z,12.70
2023-03-01T08:14:46.420Z,12.91
2023-03-01T08:17:15.746Z,13.25
2023-03-01T08:19:44.343Z,13.65
2023-03-01T08:22:13.066Z,13.97
2023-03-01T08:24:41.013Z,14.18
2023-03-01T08:27:09.770Z,14.38
2023-03-01T08:29:37.800Z,14.68
2023-03-01T08:32:05.824Z,14.94
2023-03-01T08:34:36.524Z,15.23
2023-03-01T08:37:04.770Z,15.65
2023-03-01T08:39:33.427Z,15.98
2023-03-01T08:42:01.750Z,16.19
2023-03-01T08:44:29.844Z,16.50
2023-03-01T08:46:58.676Z,16.80
2023-03-01T08:49:27.797Z,17.07
2023-03-01T08:51:55.873Z,17.34
2023-03-01T08:54:24.008Z,17.46
2023-03-01T08:56:52.341Z,17.43
2023-03-01T08:59:20.582Z,17.58
2023-03-01T09:01:48.814Z,17.74
2023-03-01T09:04:17.684Z,17.92
2023-03-01T09:06:45.761Z,18.07
2023-03-01T09:09:17.183Z,18.03
2023-03-01T09:11:51.236Z,17.85
2023-03-01T09:14:19.358Z,17.64
2023-03-01T09:16:48.105Z,17.68
2023-03-01T09:19:16.440Z,17.67
2023-03-01T09:21:53.139Z,17.52
2023-03-01T09:24:24.302Z,17.76
2023-03-01T09:26:55.668Z,18.17
2023-03-01T09:29:24.225Z,18.64
2023-03-01T09:31:52.534Z,19.07
2023-03-01T09:34:24.453Z,19.41
2023-03-01T09:36:53.098Z,19.55
2023-03-01T09:39:22.077Z,19.76
2023-03-01T09:42:00.897Z,20.03
2023-03-01T09:44:42.606Z,20.23
2023-03-01T09:47:27.735Z,20.52
2023-03-01T09:50:27.916Z,20.84
2023-03-01T09:53:07.036Z,20.62
2023-03-01T09:55:42.870Z,20.38
2023-03-01T09:58:38.147Z,20.62
2023-03-01T10:01:15.425Z,21.05
2023-03-01T10:04:04.441Z,21.43
2023-03-01T10:06:35.418Z,21.79
2023-03-01T10:09:11.716Z,21.74
2023-03-01T10:11:46.737Z,21.91
2023-03-01T10:14:29.174Z,22.24
2023-03-01T10:17:04.265Z,22.46
2023-03-01T10:19:37.717Z,22.52
2023-03-01T10:22:16.205Z,22.59
2023-03-01T10:24:44.461Z,22.90
2023-03-01T10:27:26.065Z,23.12
2023-03-01T10:30:18.062Z,23.28
2023-03-01T10:32:50.073Z,23.55
2023-03-01T10:35:18.769Z,23.74
2023-03-01T10:38:08.944Z,23.78
2023-03-01T10:40:50.604Z,23.50
2023-03-01T10:43:19.581Z,23.44
2023-03-01T10:45:48.180Z,23.28
2023-03-01T10:48:20.495Z,23.15
2023-03-01T10:50:51.364Z,22.93
2023-03-01T10:53:38.946Z,22.38
2023-03-01T10:56:10.722Z,22.19
2023-03-01T10:58:41.040Z,22.43
2023-03-01T11:01:18.021Z,22.83
2023-03-01T11:03:46.318Z,22.66
2023-03-01T11:06:14.210Z,22.66
2023-03-01T11:08:45.370Z,23.01
2023-03-01T11:11:13.396Z,23.47
2023-03-01T11:14:00.189Z,23.81
2023-03-01T11:16:36.164Z,24.07
2023-03-01T11:19:10.332Z,24.22
2023-03-01T11:21:48.833Z,24.43
2023-03-01T11:24:18.031Z,24.54
2023-03-01T11:26:52.582Z,24.57
2023-03-01T11:29:43.281Z,24.76
2023-03-01T11:32:16.822Z,24.60
2023-03-01T11:35:09.380Z,24.39
2023-03-01T11:38:20.840Z,24.36
2023-03-01T11:41:19.611Z,24.73
2023-03-01T11:44:04.991Z,25.28
2023-03-01T11:46:41.447Z,25.75
2023-03-01T11:49:22.964Z,25.94
2023-03-01T11:52:20.360Z,25.95
2023-03-01T11:54:55.023Z,25.87
2023-03-01T11:57:43.944Z,25.77
2023-03-01T12:00:30.916Z,25.97
2023-03-01T12:03:23.073Z,26.32
2023-03-01T12:06:26.424Z,26.79
2023-03-01T12:08:54.392Z,26.95
2023-03-01T12:11:46.680Z,26.88
2023-03-01T12:14:33.446Z,26.70
2023-03-01T12:17:19.738Z,26.14
2023-03-01T12:20:17.138Z,25.67
2023-03-01T12:23:01.810Z,25.12
2023-03-01T12:25:45.290Z,24.79
2023-03-01T12:28:44.632Z,25.04
2023-03-01T12:31:37.368Z,25.26
2023-03-01T12:34:27.442Z,25.40
2023-03-01T12:36:58.602Z,25.46
2023-03-01T12:40:13.819Z,25.85
2023-03-01T12:43:06.664Z,26.03
2023-03-01T12:46:04.724Z,26.03
2023-03-01T12:48:41.988Z,25.81
2023-03-01T12:51:15.567Z,25.91
2023-03-01T12:53:49.694Z,26.14
2023-03-01T12:56:25.293Z,26.34
2023-03-01T12:59:23.093Z,26.60
2023-03-01T13:02:19.980Z,27.04
2023-03-01T13:05:22.013Z,26.78
2023-03-01T13:08:31.173Z,25.98
2023-03-01T13:11:02.864Z,25.93
2023-03-01T13:13:31.664Z,26.28
2023-03-01T13:16:32.442Z,26.39
2023-03-01T13:19:13.747Z,26.40
2023-03-01T13:21:42.462Z,26.47
2023-03-01T13:24:41.886Z,26.30
2023-03-01T13:27:26.199Z,26.39
2023-03-01T13:29:56.590Z,26.59
2023-03-01T13:32:47.954Z,26.77
2023-03-01T13:35:18.889Z,26.82
2023-03-01T13:37:47.789Z,26.58
2023-03-01T13:40:19.752Z,26.49
2023-03-01T13:43:05.119Z,26.55
2023-03-01T13:45:36.528Z,26.54
2023-03-01T13:48:16.459Z,26.52
2023-03-01T13:50:51.820Z,26.57
2023-03-01T13:53:23.467Z,26.60
2023-03-01T13:56:03.330Z,26.32
2023-03-01T13:58:34.615Z,25.91
2023-03-01T14:01:07.954Z,25.64
2023-03-01T14:03:43.285Z,25.37
2023-03-01T14:06:21.374Z,25.15
2023-03-01T14:08:52.791Z,24.96
2023-03-01T14:11:39.901Z,24.83
2023-03-01T14:14:29.404Z,24.79
2023-03-01T14:17:05.047Z,24.71
2023-03-01T14:19:34.917Z,24.66
2023-03-01T14:22:26.274Z,24.44
2023-03-01T14:25:00.594Z,24.16
2023-03-01T14:27:40.481Z,24.06
2023-03-01T14:30:25.313Z,24.19
2023-03-01T14:33:07.394Z,24.27
2023-03-01T14:35:37.976Z,24.33
2023-03-01T14:38:05.995Z,24.32
2023-03-01T14:40:37.073Z,24.23
2023-03-01T14:43:19.284Z,23.93
2023-03-01T14:45:52.107Z,23.41
2023-03-01T14:48:20.669Z,22.91
2023-03-01T14:50:50.967Z,22.56
2023-03-01T14:53:24.034Z,22.40
2023-03-01T14:55:55.728Z,22.38
2023-03-01T14:58:26.483Z,22.39
2023-03-01T15:00:57.591Z,22.27
2023-03-01T15:03:43.886Z,21.99
2023-03-01T15:06:17.042Z,21.80
2023-03-01T15:08:54.576Z,21.68
2023-03-01T15:11:33.663Z,21.49
2023-03-01T15:14:01.806Z,21.17
2023-03-01T15:16:34.398Z,20.91
2023-03-01T15:19:08.345Z,20.78
2023-03-01T15:21:44.102Z,20.58
2023-03-01T15:24:21.530Z,20.00
2023-03-01T15:26:58.664Z,19.06
2023-03-01T15:29:31.089Z,17.97
2023-03-01T15:32:28.033Z,17.00
2023-03-01T15:34:59.394Z,16.04
2023-03-01T15:37:49.504Z,15.41
2023-03-01T15:40:33.906Z,14.84
2023-03-01T15:43:04.639Z,14.41
2023-03-01T15:45:39.712Z,14.07
2023-03-01T15:48:21.235Z,13.79
2023-03-01T15:50:58.821Z,13.53
2023-03-01T15:53:29.437Z,13.29
2023-03-01T15:55:57.527Z,13.06
2023-03-01T15:58:26.470Z,12.78
2023-03-01T16:01:01.137Z,12.52
2023-03-01T16:03:32.808Z,12.30
2023-03-01T16:06:01.999Z,12.16
2023-03-01T16:08:30.812Z,11.95
2023-03-01T16:10:59.394Z,11.76
2023-03-01T16:13:29.343Z,11.61
2023-03-01T16:15:57.450Z,11.45
2023-03-01T16:18:25.461Z,11.31
2023-03-01T16:20:57.492Z,11.18
2023-03-01T16:23:26.084Z,11.04
2023-03-01T16:25:54.457Z,10.91
2023-03-01T16:28:22.567Z,10.79
2023-03-01T16:30:51.958Z,10.65
2023-03-01T16:33:33.403Z,10.51
2023-03-01T16:36:07.908Z,10.37
2023-03-01T16:38:35.932Z,10.23
2023-03-01T16:41:44.652Z,10.09
2023-03-01T16:44:13.082Z,9.88
2023-03-01T16:46:42.776Z,9.71
2023-03-01T16:49:14.315Z,9.56
2023-03-01T16:51:45.550Z,9.43
2023-03-01T16:54:14.070Z,9.34
2023-03-01T16:56:42.200Z,9.28
2023-03-01T16:59:10.346Z,9.24
2023-03-01T17:01:42.456Z,9.17
2023-03-01T17:04:14.474Z,9.09
2023-03-01T17:06:42.534Z,9.03
2023-03-01T17:09:10.686Z,8.98
2023-03-01T17:12:01.291Z,8.93
2023-03-01T17:14:29.331Z,8.88
2023-03-01T17:16:57.342Z,8.85
2023-03-01T17:19:25.521Z,8.82
2023-03-01T17:21:54.359Z,8.80
2023-03-01T17:24:22.339Z,8.76
2023-03-01T17:26:50.361Z,8.67
2023-03-01T17:29:19.130Z,8.57
2023-03-01T17:31:47.471Z,8.43
2023-03-01T17:34:16.550Z,8.30
2023-03-01T17:36:45.956Z,8.18
2023-03-01T17:39:13.984Z,8.08
2023-03-01T17:41:42.368Z,8.02
2023-03-01T17:44:10.749Z,7.98
2023-03-01T17:46:38.820Z,7.93
2023-03-01T17:49:06.854Z,7.87
2023-03-01T17:51:55.196Z,7.80
2023-03-01T17:54:23.330Z,7.72
2023-03-01T17:56:51.800Z,7.65
2023-03-01T17:59:20.277Z,7.58
2023-03-01T18:01:48.504Z,7.48
2023-03-01T18:04:18.555Z,7.38
2023-03-01T18:06:46.734Z,7.28
2023-03-01T18:09:15.063Z,7.18
2023-03-01T18:11:46.713Z,7.09
2023-03-01T18:14:16.008Z,7.00
2023-03-01T18:16:44.299Z,6.93
2023-03-01T18:19:13.058Z,6.82
2023-03-01T18:21:41.419Z,6.79
2023-03-01T18:24:09.622Z,6.75
2023-03-01T18:26:39.940Z,6.71
2023-03-01T18:29:26.440Z,6.66
2023-03-01T18:31:54.931Z,6.62
2023-03-01T18:34:24.126Z,6.58
2023-03-01T18:37:08.096Z,6.55
2023-03-01T18:39:37.954Z,6.49
2023-03-01T18:42:15.523Z,6.43
2023-03-01T18:44:56.301Z,6.36
2023-03-01T18:47:24.419Z,6.32
2023-03-01T18:49:52.501Z,6.26
2023-03-01T18:52:20.633Z,6.22
2023-03-01T18:54:48.753Z,6.15
2023-03-01T18:57:16.868Z,6.08
2023-03-01T18:59:45.032Z,6.02
2023-03-01T19:02:15.803Z,5.96
2023-03-01T19:04:44.088Z,5.92
2023-03-01T19:07:12.655Z,5.89
2023-03-01T19:09:41.281Z,5.86
2023-03-01T19:12:09.602Z,5.81
2023-03-01T19:14:38.100Z,5.76
2023-03-01T19:17:06.428Z,5.72
2023-03-01T19:19:36.379Z,5.67
2023-03-01T19:22:07.859Z,5.62
2023-03-01T19:24:36.482Z,5.54
2023-03-01T19:27:04.597Z,5.46
2023-03-01T19:29:32.888Z,5.41
2023-03-01T19:32:01.200Z,5.35
2023-03-01T19:34:29.453Z,5.33
2023-03-01T19:36:57.844Z,5.28
2023-03-01T19:39:27.539Z,5.25
2023-03-01T19:41:57.041Z,5.22
2023-03-01T19:44:25.521Z,5.17
2023-03-01T19:46:57.184Z,5.01
2023-03-01T19:49:26.915Z,5.13
2023-03-01T19:51:55.164Z,5.13
2023-03-01T19:54:23.737Z,5.11
2023-03-01T19:56:52.132Z,5.09
2023-03-01T19:59:24.620Z,5.07
2023-03-01T20:01:53.047Z,5.05
2023-03-01T20:04:21.922Z,5.03
2023-03-01T20:06:50.291Z,4.98
2023-03-01T20:09:22.126Z,4.89
2023-03-01T20:11:51.509Z,4.86
2023-03-01T20:14:22.318Z,4.81
2023-03-01T20:16:52.894Z,4.77
2023-03-01T20:19:21.491Z,4.72
2023-03-01T20:21:49.915Z,4.65
2023-03-01T20:24:18.081Z,4.59
2023-03-01T20:26:46.349Z,4.54
2023-03-01T20:29:14.583Z,4.49
2023-03-01T20:31:42.895Z,4.42
2023-03-01T20:34:11.205Z,4.39
2023-03-01T20:36:41.037Z,4.37
2023-03-01T20:39:11.841Z,4.37
2023-03-01T20:41:40.168Z,4.37
2023-03-01T20:44:09.974Z,4.37
2023-03-01T20:46:43.287Z,4.36
2023-03-01T20:49:12.606Z,4.33
2023-03-01T20:51:45.835Z,4.30
2023-03-01T20:54:14.305Z,4.28
2023-03-01T20:56:42.571Z,4.25
2023-03-01T20:59:12.993Z,4.21
2023-03-01T21:01:41.008Z,4.15
2023-03-01T21:04:09.981Z,4.10
2023-03-01T21:06:39.130Z,4.05
2023-03-01T21:09:07.707Z,4.02
2023-03-01T21:11:36.517Z,3.98
2023-03-01T21:14:07.814Z,3.97
2023-03-01T21:16:36.614Z,3.94
2023-03-01T21:19:04.891Z,3.93
2023-03-01T21:21:33.347Z,3.91
2023-03-01T21:24:01.492Z,3.90
2023-03-01T21:26:30.522Z,3.86
2023-03-01T21:29:01.600Z,3.84
2023-03-01T21:31:35.442Z,3.81
2023-03-01T21:34:06.836Z,3.78
2023-03-01T21:36:36.720Z,3.73
2023-03-01T21:39:06.807Z,3.68
2023-03-01T21:41:37.230Z,3.65
2023-03-01T21:44:07.401Z,3.64
2023-03-01T21:46:38.906Z,3.65
2023-03-01T21:49:08.917Z,3.64
2023-03-01T21:51:37.498Z,3.63
2023-03-01T21:54:06.125Z,3.60
2023-03-01T21:56:39.479Z,3.60
2023-03-01T21:59:13.402Z,3.57
2023-03-01T22:01:42.040Z,3.54
2023-03-01T22:04:10.974Z,3.50
2023-03-01T22:06:42.581Z,3.50
2023-03-01T22:09:17.505Z,3.50
2023-03-01T22:11:49.639Z,3.49
2023-03-01T22:14:19.142Z,3.47
2023-03-01T22:16:51.566Z,3.45
2023-03-01T22:19:21.955Z,3.43
2023-03-01T22:21:52.124Z,3.38
2023-03-01T22:24:24.025Z,3.34
2023-03-01T22:26:53.766Z,3.31
2023-03-01T22:29:27.923Z,3.28
2023-03-01T22:31:58.520Z,3.23
2023-03-01T22:34:27.608Z,3.22
2023-03-01T22:36:56.568Z,3.11
2023-03-01T22:39:25.089Z,3.17
2023-03-01T22:41:54.451Z,3.14
2023-03-01T22:44:27.536Z,3.12
2023-03-01T22:46:55.813Z,3.12
2023-03-01T22:49:24.658Z,3.12
2023-03-01T22:51:53.429Z,3.13
2023-03-01T22:54:21.669Z,3.11
2023-03-01T22:56:50.397Z,3.08
2023-03-01T22:59:24.490Z,3.03
2023-03-01T23:01:54.183Z,2.98
2023-03-01T23:04:22.602Z,2.94
2023-03-01T23:06:51.699Z,2.91
2023-03-01T23:09:32.902Z,2.89
2023-03-01T23:12:06.669Z,2.87
2023-03-01T23:14:38.216Z,2.85
2023-03-01T23:17:08.674Z,2.84
2023-03-01T23:19:37.010Z,2.84
2023-03-01T23:22:05.118Z,2.85
2023-03-01T23:24:34.246Z,2.84
2023-03-01T23:27:03.708Z,2.82
2023-03-01T23:29:32.459Z,2.81
2023-03-01T23:32:01.731Z,2.79
2023-03-01T23:34:29.834Z,2.77
2023-03-01T23:36:58.841Z,2.74
2023-03-01T23:39:27.876Z,2.71
2023-03-01T23:41:57.484Z,2.68
2023-03-01T23:44:25.687Z,2.66
2023-03-01T23:46:54.160Z,2.63
2023-03-01T23:49:23.323Z,2.58
2023-03-01T23:51:51.596Z,2.51
2023-03-01T23:54:22.232Z,2.44
2023-03-01T23:56:50.523Z,2.40
2023-03-01T23:59:23.203Z,2.36
